Time;durP1;ratioP1;P1;durP2;ratioP2;P2;SDS_P1;SDS_P2;PMS_P1;PMS_P2;Temp;Humidity;BMP_temperature;BMP_pressure;BME280_temperature;BME280_humidity;BME280_pressure;Samples;Min_cycle;Max_cycle;Signal;HPM_P1;HPM_P2
2022/01/28 00:01:02;;;;;;;20.73;11.50;;;2.70;99.90;;;;;;5057392;28;20475;-77
2022/01/28 00:03:31;;;;;;;22.48;12.27;;;2.70;99.90;;;;;;5065769;28;20237;-76
2022/01/28 00:05:57;;;;;;;19.27;12.35;;;2.80;99.90;;;;;;5069239;28;20221;-76
2022/01/28 00:08:24;;;;;;;26.92;13.40;;;2.70;99.90;;;;;;5069426;28;20301;-76
2022/01/28 00:10:52;;;;;;;21.90;12.45;;;2.80;99.90;;;;;;5059053;28;20740;-76
2022/01/28 00:13:31;;;;;;;20.80;11.95;;;2.80;99.90;;;;;;5056790;28;20276;-77
2022/01/28 00:16:37;;;;;;;22.77;12.82;;;2.90;99.90;;;;;;5054496;28;20214;-77
2022/01/28 00:19:41;;;;;;;25.90;14.73;;;2.90;99.90;;;;;;5055129;28;20236;-76
2022/01/28 00:38:34;;;;;;;23.77;12.95;;;3.00;99.60;;;;;;5063526;28;20285;-77
2022/01/28 00:41:01;;;;;;;21.85;12.05;;;3.00;99.50;;;;;;5055879;28;20289;-77
2022/01/28 00:43:28;;;;;;;20.98;12.32;;;3.00;99.60;;;;;;5058952;28;20242;-75
2022/01/28 00:45:56;;;;;;;23.52;13.07;;;3.00;99.50;;;;;;5060507;28;20216;-77
2022/01/28 00:48:24;;;;;;;22.73;12.15;;;3.00;99.60;;;;;;5060220;28;20195;-75
2022/01/28 00:50:52;;;;;;;21.15;11.82;;;3.10;99.60;;;;;;5060679;28;20222;-78
2022/01/28 00:53:19;;;;;;;23.13;14.00;;;3.10;99.20;;;;;;5064492;28;20195;-77
2022/01/28 00:55:46;;;;;;;25.65;14.05;;;3.00;99.10;;;;;;5064803;28;20257;-78
2022/01/28 00:58:13;;;;;;;19.80;11.65;;;3.00;99.30;;;;;;5063626;28;20209;-77
2022/01/28 01:00:50;;;;;;;21.42;12.52;;;3.10;99.20;;;;;;5063302;28;20260;-76
2022/01/28 01:03:17;;;;;;;20.05;10.98;;;3.10;99.30;;;;;;5060453;28;20643;-77
2022/01/28 01:05:46;;;;;;;19.83;12.15;;;3.10;99.20;;;;;;5060242;28;20234;-77
2022/01/28 01:08:13;;;;;;;20.85;12.30;;;3.10;99.40;;;;;;5061573;28;20202;-77
2022/01/28 01:10:40;;;;;;;20.63;12.50;;;3.10;99.40;;;;;;5061657;28;20252;-77
2022/01/28 01:13:07;;;;;;;20.77;11.60;;;3.20;99.60;;;;;;5060659;28;20258;-75
2022/01/28 01:15:41;;;;;;;24.50;12.45;;;3.10;99.20;;;;;;5058575;28;20202;-75
2022/01/28 01:18:15;;;;;;;24.10;12.32;;;3.10;99.20;;;;;;5057181;28;20247;-77
2022/01/28 01:20:59;;;;;;;19.80;11.27;;;3.10;99.00;;;;;;5059416;28;20276;-74
2022/01/28 01:23:31;;;;;;;21.88;12.57;;;3.10;98.80;;;;;;5060325;28;20811;-77
2022/01/28 01:26:06;;;;;;;25.88;13.75;;;3.10;99.20;;;;;;5063471;28;20210;-76
2022/01/28 01:28:37;;;;;;;20.13;11.35;;;3.10;99.30;;;;;;5066202;28;20210;-75
2022/01/28 01:31:05;;;;;;;19.23;11.98;;;3.10;99.50;;;;;;5071582;28;20222;-76
2022/01/28 01:33:38;;;;;;;21.83;11.40;;;3.10;99.40;;;;;;5074371;28;20206;-76
2022/01/28 01:36:05;;;;;;;20.48;12.57;;;3.10;99.60;;;;;;5070436;28;20211;-76
2022/01/28 01:38:37;;;;;;;28.00;13.38;;;3.10;99.60;;;;;;5074128;28;20227;-77
2022/01/28 01:41:08;;;;;;;22.08;12.02;;;3.00;99.60;;;;;;5062968;28;20322;-77
2022/01/28 01:43:50;;;;;;;23.42;12.55;;;3.10;99.90;;;;;;5057111;28;20226;-77
2022/01/28 01:46:24;;;;;;;25.25;12.32;;;3.10;99.90;;;;;;5058712;28;20666;-77
2022/01/28 01:54:21;;;;;;;26.60;13.15;;;3.20;99.90;;;;;;5056194;28;20260;-77
2022/01/28 01:56:49;;;;;;;26.75;13.32;;;3.20;99.90;;;;;;5056866;28;20210;-76
2022/01/28 01:59:16;;;;;;;18.35;12.02;;;3.30;99.80;;;;;;5054992;28;20244;-77
2022/01/28 02:01:43;;;;;;;27.10;12.60;;;3.30;99.80;;;;;;5056009;28;20202;-76
2022/01/28 02:04:11;;;;;;;22.08;11.40;;;3.30;99.70;;;;;;5055680;28;20323;-77
2022/01/28 02:06:40;;;;;;;22.05;13.27;;;3.30;99.50;;;;;;5056518;28;20202;-77
2022/01/28 02:09:07;;;;;;;21.42;12.35;;;3.40;99.10;;;;;;5055243;28;20268;-76
2022/01/28 02:11:36;;;;;;;23.63;13.48;;;3.30;98.90;;;;;;5054509;28;20310;-76
2022/01/28 02:14:03;;;;;;;27.00;13.57;;;3.30;99.00;;;;;;5065029;28;20210;-77
2022/01/28 02:16:30;;;;;;;21.70;12.77;;;3.40;98.80;;;;;;5054538;28;20554;-76
2022/01/28 02:18:57;;;;;;;25.70;12.75;;;3.40;98.50;;;;;;5055034;28;20726;-76
2022/01/28 02:21:25;;;;;;;20.65;12.73;;;3.30;98.50;;;;;;5053883;28;20260;-76
2022/01/28 02:23:57;;;;;;;23.85;13.63;;;3.40;98.70;;;;;;5054677;28;20876;-78
2022/01/28 02:26:24;;;;;;;22.35;12.90;;;3.40;98.60;;;;;;5054312;28;20214;-76
2022/01/28 02:28:55;;;;;;;23.65;12.45;;;3.40;98.70;;;;;;5053707;28;20289;-76
2022/01/28 02:31:25;;;;;;;20.90;13.05;;;3.50;98.50;;;;;;5054359;28;20244;-76
2022/01/28 02:33:55;;;;;;;24.02;12.80;;;3.50;98.30;;;;;;5054497;28;20260;-77
2022/01/28 02:36:24;;;;;;;23.33;12.13;;;3.50;98.20;;;;;;5054325;28;20191;-76
2022/01/28 02:38:53;;;;;;;24.70;12.90;;;3.50;98.10;;;;;;5054679;28;20206;-76
2022/01/28 02:41:20;;;;;;;22.92;12.82;;;3.50;98.10;;;;;;5053004;28;20241;-77
2022/01/28 02:44:02;;;;;;;22.55;12.82;;;3.50;98.10;;;;;;5054293;28;20261;-76
2022/01/28 02:46:31;;;;;;;19.05;11.23;;;3.50;98.10;;;;;;5055073;28;20302;-77
2022/01/28 02:49:04;;;;;;;22.77;12.32;;;3.50;98.10;;;;;;5062314;28;20209;-78
2022/01/28 02:51:31;;;;;;;23.50;12.73;;;3.50;98.10;;;;;;5055016;28;20187;-77
2022/01/28 02:54:11;;;;;;;26.08;15.20;;;3.50;98.10;;;;;;5069796;28;20313;-78
2022/01/28 02:56:40;;;;;;;27.58;14.05;;;3.50;98.10;;;;;;5070638;28;20190;-76
2022/01/28 02:59:08;;;;;;;23.38;14.00;;;3.50;98.00;;;;;;5054557;28;20578;-77
2022/01/28 03:01:35;;;;;;;26.42;13.63;;;3.50;97.90;;;;;;5053522;28;20210;-78
2022/01/28 03:04:04;;;;;;;26.58;13.35;;;3.50;98.00;;;;;;5054478;28;20233;-77
2022/01/28 03:06:31;;;;;;;22.08;14.20;;;3.50;98.00;;;;;;5054022;28;20221;-75
2022/01/28 03:09:03;;;;;;;23.90;13.40;;;3.50;98.00;;;;;;5054255;28;20210;-75
2022/01/28 03:14:18;;;;;;;23.05;13.30;;;3.40;97.80;;;;;;5058642;28;20212;-76
2022/01/28 03:17:08;;;;;;;23.98;13.07;;;3.40;98.00;;;;;;5043011;28;20203;-78
2022/01/28 03:19:49;;;;;;;22.25;13.00;;;3.40;98.00;;;;;;5037729;28;20711;-76
2022/01/28 03:22:16;;;;;;;24.88;14.10;;;3.40;98.60;;;;;;5055063;28;20201;-75
2022/01/28 03:24:47;;;;;;;25.42;14.90;;;3.40;98.80;;;;;;5054380;28;20233;-76
2022/01/28 03:27:23;;;;;;;24.50;14.18;;;3.40;99.10;;;;;;5054663;28;20765;-77
2022/01/28 03:29:50;;;;;;;23.85;13.15;;;3.40;99.10;;;;;;5055098;28;20286;-77
2022/01/28 03:32:16;;;;;;;25.70;13.55;;;3.40;99.30;;;;;;5059938;28;20273;-77
2022/01/28 03:34:43;;;;;;;24.05;13.50;;;3.40;99.60;;;;;;5057893;28;20203;-76
2022/01/28 03:37:11;;;;;;;22.02;12.65;;;3.40;99.70;;;;;;5056072;28;20198;-76
2022/01/28 03:39:41;;;;;;;25.63;14.20;;;3.40;99.80;;;;;;5060815;28;20329;-76
2022/01/28 03:42:10;;;;;;;27.38;14.32;;;3.40;99.90;;;;;;5066877;28;20191;-77
2022/01/28 03:44:38;;;;;;;28.55;13.98;;;3.40;99.90;;;;;;5066384;28;20226;-77
2022/01/28 03:47:05;;;;;;;23.95;13.75;;;3.50;99.90;;;;;;5064872;28;20213;-76
2022/01/28 03:49:32;;;;;;;34.97;15.05;;;3.40;99.90;;;;;;5067404;28;20257;-77
2022/01/28 03:51:58;;;;;;;26.70;14.60;;;3.40;99.90;;;;;;5067213;28;20278;-77
2022/01/28 03:54:25;;;;;;;29.27;14.82;;;3.40;99.90;;;;;;5071190;28;20199;-77
2022/01/28 03:56:52;;;;;;;29.80;15.07;;;3.40;99.90;;;;;;5068652;28;20256;-77
2022/01/28 03:59:21;;;;;;;34.40;15.15;;;3.30;99.90;;;;;;5073685;28;20219;-77
2022/01/28 04:01:49;;;;;;;29.85;13.45;;;3.20;99.90;;;;;;5070664;28;20206;-76
2022/01/28 04:05:04;;;;;;;31.48;14.00;;;3.20;99.90;;;;;;5058490;28;20272;-76
2022/01/28 04:12:49;;;;;;;32.17;15.13;;;3.30;99.90;;;;;;5057427;28;20701;-76
2022/01/28 04:15:34;;;;;;;31.95;15.30;;;3.30;99.90;;;;;;5057391;28;20296;-76
2022/01/28 04:18:01;;;;;;;32.42;14.90;;;3.20;99.90;;;;;;5058160;28;20277;-76
2022/01/28 04:20:30;;;;;;;26.77;14.57;;;3.20;99.90;;;;;;5056377;28;20218;-77
2022/01/28 04:22:57;;;;;;;27.73;14.27;;;3.20;99.90;;;;;;5057407;28;20245;-76
2022/01/28 04:25:24;;;;;;;32.47;14.20;;;3.10;99.90;;;;;;5057541;28;20229;-75
2022/01/28 04:27:51;;;;;;;28.90;14.80;;;3.20;99.90;;;;;;5068223;28;20245;-78
2022/01/28 04:30:19;;;;;;;27.15;15.00;;;3.20;99.90;;;;;;5057085;28;20586;-77
2022/01/28 04:32:48;;;;;;;31.10;15.43;;;3.20;99.90;;;;;;5056924;28;20769;-76
2022/01/28 04:35:15;;;;;;;31.52;15.27;;;3.10;99.90;;;;;;5056897;28;20268;-77
2022/01/28 04:37:50;;;;;;;31.77;14.52;;;3.10;99.90;;;;;;5057017;28;20210;-77
2022/01/28 04:40:19;;;;;;;29.13;13.95;;;3.00;99.90;;;;;;5056807;28;20230;-78
2022/01/28 04:42:59;;;;;;;28.95;14.27;;;3.00;99.90;;;;;;5057600;28;20210;-77
2022/01/28 04:45:35;;;;;;;29.40;14.90;;;2.90;99.90;;;;;;5058553;28;20237;-75
2022/01/28 04:48:38;;;;;;;26.42;13.95;;;2.90;99.90;;;;;;5062535;28;20206;-75
2022/01/28 04:51:23;;;;;;;34.80;15.88;;;2.90;99.90;;;;;;5056883;28;20233;-78
2022/01/28 04:54:04;;;;;;;28.02;13.32;;;3.00;99.90;;;;;;5063127;28;20578;-76
2022/01/28 04:56:46;;;;;;;24.00;13.00;;;2.90;99.90;;;;;;5058709;28;20253;-76
2022/01/28 04:59:36;;;;;;;27.02;13.93;;;2.90;99.90;;;;;;5057583;28;20222;-76
2022/01/28 05:02:24;;;;;;;29.30;15.55;;;3.00;99.90;;;;;;5042465;28;20207;-75
2022/01/28 05:05:07;;;;;;;29.77;14.35;;;3.00;99.90;;;;;;5053390;28;20245;-74
2022/01/28 05:07:46;;;;;;;27.38;14.18;;;3.00;99.90;;;;;;5058611;28;20186;-74
2022/01/28 05:10:38;;;;;;;32.10;14.13;;;3.10;99.90;;;;;;5075832;28;20206;-75
2022/01/28 05:13:34;;;;;;;33.42;14.60;;;3.00;99.90;;;;;;5078253;28;20202;-75
2022/01/28 05:24:39;;;;;;;30.17;14.60;;;3.10;99.90;;;;;;5078075;28;20193;-75
2022/01/28 05:27:08;;;;;;;29.70;13.90;;;3.10;99.90;;;;;;5066526;28;20190;-75
2022/01/28 05:29:35;;;;;;;31.05;15.18;;;3.10;99.90;;;;;;5061818;28;20360;-76
2022/01/28 05:32:03;;;;;;;25.27;13.98;;;3.10;99.90;;;;;;5061980;28;20569;-76
2022/01/28 05:34:31;;;;;;;32.67;14.82;;;3.10;99.90;;;;;;5061355;28;20206;-76
2022/01/28 05:36:58;;;;;;;30.85;14.15;;;3.10;99.90;;;;;;5062214;28;20206;-75
2022/01/28 05:39:25;;;;;;;32.78;14.25;;;3.10;99.90;;;;;;5060138;28;20304;-76
2022/01/28 05:41:52;;;;;;;29.00;14.45;;;3.10;99.90;;;;;;5057798;28;20214;-75
2022/01/28 05:44:20;;;;;;;29.08;15.00;;;3.00;99.90;;;;;;5057522;28;20270;-76
2022/01/28 05:46:47;;;;;;;35.70;15.80;;;3.00;99.90;;;;;;5058316;28;20241;-76
2022/01/28 05:49:15;;;;;;;28.73;14.77;;;3.00;99.90;;;;;;5058332;28;20621;-76
2022/01/28 05:51:44;;;;;;;33.05;15.18;;;2.90;99.90;;;;;;5063134;28;20207;-77
2022/01/28 05:54:11;;;;;;;36.75;16.67;;;3.00;99.90;;;;;;5071854;28;20217;-75
2022/01/28 05:56:38;;;;;;;36.75;15.77;;;2.90;99.90;;;;;;5064920;28;20250;-76
2022/01/28 05:59:05;;;;;;;35.42;16.48;;;3.00;99.90;;;;;;5058498;28;20294;-75
2022/01/28 06:01:32;;;;;;;36.10;15.95;;;3.00;99.90;;;;;;5062338;28;20226;-76
2022/01/28 06:03:59;;;;;;;32.33;15.60;;;3.00;99.90;;;;;;5062680;28;20305;-75
2022/01/28 06:06:26;;;;;;;34.05;15.50;;;3.00;99.90;;;;;;5061152;28;20246;-75
2022/01/28 06:08:56;;;;;;;33.15;15.50;;;2.90;99.90;;;;;;5076866;28;20210;-75
2022/01/28 06:11:24;;;;;;;31.13;16.42;;;2.90;99.90;;;;;;5076438;28;20182;-75
2022/01/28 06:13:51;;;;;;;33.60;15.50;;;2.90;99.90;;;;;;5076762;28;20211;-76
2022/01/28 06:16:19;;;;;;;36.63;17.65;;;2.90;99.90;;;;;;5071380;28;20195;-75
2022/01/28 06:18:46;;;;;;;31.90;16.67;;;2.90;99.90;;;;;;5070220;28;20210;-75
2022/01/28 06:21:13;;;;;;;33.13;14.52;;;2.90;99.90;;;;;;5068691;28;20222;-76
2022/01/28 06:23:40;;;;;;;41.97;17.83;;;2.90;99.90;;;;;;5072411;28;20194;-76
2022/01/28 06:26:08;;;;;;;37.08;16.73;;;2.90;99.90;;;;;;5056661;28;20226;-76
2022/01/28 06:28:35;;;;;;;27.65;13.90;;;2.90;99.90;;;;;;5057028;28;20209;-76
2022/01/28 06:31:03;;;;;;;36.05;17.92;;;3.00;99.90;;;;;;5063570;28;20265;-77
2022/01/28 06:33:31;;;;;;;33.90;16.33;;;3.00;99.90;;;;;;5062499;28;20210;-75
2022/01/28 06:35:57;;;;;;;40.38;17.73;;;3.00;99.90;;;;;;5061373;28;20212;-77
2022/01/28 06:38:25;;;;;;;34.10;16.13;;;3.00;99.90;;;;;;5061598;28;20211;-76
2022/01/28 06:40:52;;;;;;;38.15;17.17;;;3.00;99.90;;;;;;5063316;28;20234;-77
2022/01/28 06:43:21;;;;;;;33.05;15.35;;;3.10;99.90;;;;;;5061921;28;20214;-77
2022/01/28 06:45:48;;;;;;;32.35;16.42;;;3.10;99.90;;;;;;5067182;28;20218;-76
2022/01/28 06:48:16;;;;;;;33.90;15.98;;;3.10;99.90;;;;;;5064710;28;20206;-75
2022/01/28 06:50:45;;;;;;;38.75;18.08;;;3.10;99.90;;;;;;5070214;28;20242;-75
2022/01/28 06:53:13;;;;;;;33.95;15.98;;;3.10;99.90;;;;;;5076820;28;20190;-75
2022/01/28 06:55:41;;;;;;;35.58;16.98;;;3.10;99.90;;;;;;5076780;28;20194;-75
2022/01/28 06:58:09;;;;;;;31.08;15.68;;;3.20;99.90;;;;;;5071830;28;20217;-75
2022/01/28 07:00:39;;;;;;;32.35;16.10;;;3.10;99.90;;;;;;5063110;28;20264;-77
2022/01/28 07:03:07;;;;;;;29.70;14.85;;;3.10;99.90;;;;;;5062034;28;20210;-75
2022/01/28 07:05:35;;;;;;;36.72;15.90;;;3.20;99.90;;;;;;5056177;28;20632;-75
2022/01/28 07:08:02;;;;;;;31.52;16.30;;;3.20;99.90;;;;;;5057036;28;20241;-77
2022/01/28 07:10:29;;;;;;;31.38;15.48;;;3.20;99.90;;;;;;5056053;28;20305;-76
2022/01/28 07:12:56;;;;;;;29.25;15.57;;;3.20;99.90;;;;;;5058398;28;20210;-77
2022/01/28 07:15:25;;;;;;;33.47;15.90;;;3.20;99.90;;;;;;5057422;28;20198;-77
2022/01/28 07:17:54;;;;;;;27.30;14.30;;;3.20;99.90;;;;;;5063855;28;20233;-77
2022/01/28 07:20:21;;;;;;;29.42;15.93;;;3.20;99.90;;;;;;5075224;28;20222;-76
2022/01/28 07:22:49;;;;;;;33.05;15.70;;;3.30;99.90;;;;;;5076359;28;20273;-76
2022/01/28 07:25:16;;;;;;;26.40;14.00;;;3.30;99.90;;;;;;5075432;28;20209;-75
2022/01/28 07:27:43;;;;;;;26.08;14.48;;;3.30;99.90;;;;;;5075864;28;20248;-76
2022/01/28 07:30:13;;;;;;;31.67;16.63;;;3.30;99.90;;;;;;5079593;28;20232;-76
2022/01/28 07:32:40;;;;;;;29.48;14.52;;;3.40;99.90;;;;;;5078681;28;20240;-76
2022/01/28 07:35:09;;;;;;;30.70;14.75;;;3.40;99.90;;;;;;5075053;28;20203;-76
2022/01/28 07:37:37;;;;;;;25.73;13.80;;;3.40;99.90;;;;;;5066453;28;20222;-76
2022/01/28 07:40:05;;;;;;;30.00;14.80;;;3.40;99.90;;;;;;5060540;28;20247;-76
2022/01/28 07:42:34;;;;;;;29.13;14.30;;;3.40;99.90;;;;;;5079852;28;20197;-74
2022/01/28 07:45:01;;;;;;;28.75;14.27;;;3.40;99.90;;;;;;5079619;28;20200;-76
2022/01/28 07:47:28;;;;;;;31.10;14.65;;;3.40;99.90;;;;;;5079418;28;20213;-76
2022/01/28 07:49:55;;;;;;;25.98;12.95;;;3.40;99.90;;;;;;5078074;28;20237;-78
2022/01/28 07:52:24;;;;;;;26.30;14.25;;;3.40;99.90;;;;;;5078372;28;20234;-76
2022/01/28 07:54:51;;;;;;;26.77;13.50;;;3.50;99.90;;;;;;5078072;28;20205;-76
2022/01/28 07:57:18;;;;;;;29.15;13.70;;;3.40;99.90;;;;;;5075189;28;20285;-77
2022/01/28 07:59:45;;;;;;;25.80;13.60;;;3.50;99.90;;;;;;5065160;28;20226;-77
2022/01/28 08:02:12;;;;;;;26.25;14.38;;;3.50;99.90;;;;;;5062636;28;20262;-77
2022/01/28 08:04:39;;;;;;;30.85;14.55;;;3.60;99.90;;;;;;5064107;28;20229;-77
2022/01/28 08:07:06;;;;;;;30.95;15.55;;;3.60;99.90;;;;;;5047507;28;20227;-76
2022/01/28 08:09:34;;;;;;;22.48;13.88;;;3.60;99.90;;;;;;5050429;28;20258;-76
2022/01/28 08:12:01;;;;;;;23.15;12.65;;;3.60;99.90;;;;;;5063497;28;20351;-78
2022/01/28 08:14:30;;;;;;;26.50;13.95;;;3.60;99.80;;;;;;5070289;28;20203;-78
2022/01/28 08:16:57;;;;;;;24.58;13.55;;;3.60;99.10;;;;;;5070486;28;20210;-78
2022/01/28 08:19:24;;;;;;;22.83;12.35;;;3.70;99.30;;;;;;5058924;28;20258;-77
2022/01/28 08:21:51;;;;;;;22.40;12.98;;;3.70;99.00;;;;;;5062031;28;20570;-77
2022/01/28 08:24:18;;;;;;;25.92;13.93;;;3.80;98.40;;;;;;5065751;28;20225;-80
2022/01/28 08:26:47;;;;;;;27.27;14.02;;;3.80;98.00;;;;;;5063369;28;20693;-77
2022/01/28 08:29:14;;;;;;;27.88;14.63;;;3.90;97.70;;;;;;5059089;28;20223;-77
2022/01/28 08:31:41;;;;;;;26.27;13.85;;;3.90;96.60;;;;;;5051049;28;20230;-77
2022/01/28 08:34:08;;;;;;;29.73;14.60;;;4.00;96.50;;;;;;5055347;28;20291;-77
2022/01/28 08:36:35;;;;;;;25.25;14.60;;;4.00;96.00;;;;;;5072491;28;20213;-77
2022/01/28 08:39:05;;;;;;;28.38;14.20;;;4.00;95.20;;;;;;5080450;28;20197;-78
2022/01/28 08:41:33;;;;;;;23.92;13.88;;;4.10;94.80;;;;;;5073689;28;20247;-77
2022/01/28 08:44:01;;;;;;;22.02;11.95;;;4.00;94.70;;;;;;5071700;28;20194;-78
2022/01/28 08:46:28;;;;;;;25.80;13.45;;;4.10;94.20;;;;;;5061082;28;20246;-78
2022/01/28 08:48:55;;;;;;;23.90;13.68;;;4.10;94.10;;;;;;5059197;28;20217;-78
2022/01/28 08:51:22;;;;;;;28.30;14.35;;;4.10;94.00;;;;;;5061091;28;20198;-77
2022/01/28 08:53:49;;;;;;;25.20;13.88;;;4.20;93.70;;;;;;5061418;28;20646;-78
2022/01/28 08:56:16;;;;;;;23.83;13.80;;;4.30;93.30;;;;;;5068957;28;20198;-79
2022/01/28 08:58:43;;;;;;;24.08;14.13;;;4.30;92.60;;;;;;5069673;28;20213;-78
2022/01/28 09:01:12;;;;;;;30.40;14.10;;;4.30;91.90;;;;;;5069000;28;20218;-80
2022/01/28 09:03:39;;;;;;;23.05;12.70;;;4.40;91.40;;;;;;5070372;28;20209;-78
2022/01/28 09:06:06;;;;;;;32.13;14.73;;;4.40;91.40;;;;;;5071998;28;20215;-79
2022/01/28 09:08:32;;;;;;;26.10;13.80;;;4.40;91.10;;;;;;5067661;28;20205;-77
2022/01/28 09:11:18;;;;;;;23.83;14.23;;;4.50;90.90;;;;;;5064286;28;20297;-79
2022/01/28 09:13:45;;;;;;;18.58;11.68;;;4.50;90.70;;;;;;5064777;28;20199;-78
2022/01/28 09:16:14;;;;;;;22.13;11.73;;;4.60;90.20;;;;;;5063849;28;20293;-79
2022/01/28 09:18:41;;;;;;;26.17;13.95;;;4.70;89.50;;;;;;5060684;28;20206;-79
2022/01/28 09:21:07;;;;;;;25.85;13.70;;;4.70;88.20;;;;;;5063161;28;20226;-77
2022/01/28 09:23:34;;;;;;;23.15;12.77;;;4.80;87.20;;;;;;5057600;28;20273;-77
2022/01/28 09:26:02;;;;;;;26.25;13.07;;;4.70;86.20;;;;;;5061060;28;20637;-78
2022/01/28 09:28:28;;;;;;;23.15;14.15;;;4.70;85.60;;;;;;5051262;28;20290;-77
2022/01/28 09:30:57;;;;;;;23.52;13.50;;;4.80;85.80;;;;;;5055811;28;20362;-77
2022/01/28 09:33:25;;;;;;;20.98;12.15;;;4.80;85.40;;;;;;5055892;28;20278;-78
2022/01/28 09:35:54;;;;;;;23.63;12.77;;;4.90;85.40;;;;;;5056084;28;20297;-78
2022/01/28 09:38:21;;;;;;;20.00;13.00;;;5.00;83.20;;;;;;5037034;28;20238;-79
2022/01/28 09:40:49;;;;;;;21.17;12.93;;;5.00;83.50;;;;;;5044641;28;20268;-78
2022/01/28 09:43:16;;;;;;;23.00;12.50;;;5.20;82.50;;;;;;5060980;28;20203;-77
2022/01/28 09:45:47;;;;;;;23.88;12.93;;;5.10;81.50;;;;;;5060062;28;20273;-78
2022/01/28 09:48:14;;;;;;;25.63;13.30;;;5.10;81.50;;;;;;5059501;28;20724;-78
2022/01/28 09:50:44;;;;;;;19.48;11.50;;;5.20;81.40;;;;;;5058027;28;20771;-77
2022/01/28 09:53:11;;;;;;;22.27;12.90;;;5.20;81.60;;;;;;5064707;28;20218;-78
2022/01/28 09:55:38;;;;;;;19.58;11.75;;;5.30;80.00;;;;;;5069679;28;20258;-79
2022/01/28 09:58:05;;;;;;;18.63;12.80;;;5.40;79.20;;;;;;5070069;28;20268;-78
2022/01/28 10:00:34;;;;;;;20.27;11.18;;;5.50;78.20;;;;;;5067883;28;20219;-77
2022/01/28 10:03:03;;;;;;;21.17;11.40;;;5.50;77.70;;;;;;5057397;28;20269;-77
2022/01/28 10:05:32;;;;;;;20.90;12.32;;;5.50;76.10;;;;;;5057822;28;20278;-80
2022/01/28 10:08:12;;;;;;;19.58;12.05;;;5.50;76.90;;;;;;5057305;28;20202;-78
2022/01/28 10:10:48;;;;;;;15.75;10.68;;;5.50;76.10;;;;;;5055523;28;20604;-79
2022/01/28 10:13:20;;;;;;;22.52;11.10;;;5.50;76.20;;;;;;5057310;28;20531;-78
2022/01/28 10:16:12;;;;;;;19.23;12.18;;;5.60;76.20;;;;;;5055140;28;20214;-78
2022/01/28 10:18:47;;;;;;;19.95;11.23;;;5.70;75.80;;;;;;5061337;28;20214;-76
2022/01/28 10:21:29;;;;;;;20.92;12.07;;;5.70;74.60;;;;;;5054949;28;20243;-78
2022/01/28 10:24:13;;;;;;;16.38;10.68;;;5.60;75.00;;;;;;5054873;28;20217;-77
2022/01/28 10:26:42;;;;;;;16.60;10.85;;;5.50;75.30;;;;;;5047784;28;20242;-77
2022/01/28 10:29:13;;;;;;;19.90;11.98;;;5.50;76.00;;;;;;5055704;28;20287;-80
2022/01/28 10:31:44;;;;;;;19.00;11.43;;;5.50;76.10;;;;;;5056746;28;20296;-78
2022/01/28 10:34:33;;;;;;;21.65;11.10;;;5.60;75.20;;;;;;5044042;28;20199;-78
2022/01/28 10:37:14;;;;;;;23.02;12.02;;;5.70;75.30;;;;;;5033498;28;20617;-79
2022/01/28 10:39:45;;;;;;;19.95;11.65;;;5.70;74.60;;;;;;5057648;28;20297;-79
2022/01/28 10:42:15;;;;;;;20.27;11.48;;;5.70;74.60;;;;;;5076472;28;20236;-80
2022/01/28 10:44:56;;;;;;;21.63;12.13;;;5.90;73.80;;;;;;5074809;28;20217;-83
2022/01/28 10:47:31;;;;;;;21.75;12.00;;;5.90;73.80;;;;;;5067696;28;20222;-79
2022/01/28 10:49:59;;;;;;;23.45;13.57;;;6.00;73.90;;;;;;5066938;28;20236;-79
2022/01/28 10:52:32;;;;;;;16.52;11.32;;;6.20;74.00;;;;;;5063921;28;20194;-80
2022/01/28 10:55:01;;;;;;;20.52;12.10;;;6.30;72.30;;;;;;5067341;28;20198;-79
2022/01/28 10:57:31;;;;;;;16.17;10.15;;;6.40;71.10;;;;;;5066760;28;20222;-80
2022/01/28 10:59:59;;;;;;;21.17;12.27;;;6.40;71.20;;;;;;5047716;28;20317;-80
2022/01/28 11:02:27;;;;;;;18.13;11.50;;;6.40;71.00;;;;;;5061510;28;20313;-80
2022/01/28 11:04:57;;;;;;;21.83;12.13;;;6.30;70.90;;;;;;5070960;28;20210;-79
2022/01/28 11:07:24;;;;;;;19.52;12.50;;;6.20;72.00;;;;;;5074520;28;20207;-79
2022/01/28 11:09:51;;;;;;;23.13;12.75;;;6.20;72.40;;;;;;5086938;28;20287;-80
2022/01/28 11:12:20;;;;;;;23.92;13.57;;;6.10;73.90;;;;;;5083232;28;20194;-79
2022/01/28 11:14:47;;;;;;;26.38;12.73;;;6.10;74.00;;;;;;5070292;28;20268;-79
2022/01/28 11:17:16;;;;;;;28.80;13.05;;;6.20;74.00;;;;;;5070827;28;20202;-79
2022/01/28 11:19:44;;;;;;;17.45;10.50;;;6.30;74.10;;;;;;5071479;28;20222;-79
2022/01/28 11:22:33;;;;;;;20.50;12.43;;;6.30;74.10;;;;;;5071032;28;20202;-79
2022/01/28 11:25:35;;;;;;;21.58;13.95;;;6.30;74.10;;;;;;5068231;28;20174;-79
2022/01/28 11:28:10;;;;;;;22.75;12.27;;;6.30;74.10;;;;;;5083514;28;20585;-79
2022/01/28 11:30:45;;;;;;;18.58;12.55;;;6.30;74.10;;;;;;5072416;28;20210;-80
2022/01/28 11:33:12;;;;;;;22.60;13.60;;;6.40;74.20;;;;;;5070467;28;20206;-78
2022/01/28 11:35:40;;;;;;;21.80;12.32;;;6.50;72.90;;;;;;5068236;28;20194;-80
2022/01/28 11:38:37;;;;;;;22.48;12.77;;;6.70;71.40;;;;;;5064241;28;20198;-79
2022/01/28 11:41:09;;;;;;;17.08;12.10;;;6.90;70.30;;;;;;5079418;28;20244;-79
2022/01/28 11:43:46;;;;;;;22.25;12.85;;;6.90;68.90;;;;;;5079937;28;20199;-78
2022/01/28 11:46:20;;;;;;;20.20;12.23;;;7.00;68.70;;;;;;5071796;28;20190;-79
2022/01/28 11:49:24;;;;;;;17.52;11.30;;;6.90;68.60;;;;;;5064425;28;20266;-78
2022/01/28 11:51:51;;;;;;;20.23;11.55;;;6.70;67.20;;;;;;5062958;28;20221;-79
2022/01/28 11:54:36;;;;;;;22.65;12.70;;;6.40;68.20;;;;;;5062181;28;20206;-79
2022/01/28 11:57:18;;;;;;;21.08;12.25;;;6.40;69.60;;;;;;5077643;28;20202;-79
2022/01/28 11:59:47;;;;;;;23.90;12.45;;;6.40;69.50;;;;;;5048082;28;20242;-80
2022/01/28 12:02:16;;;;;;;21.55;12.25;;;6.50;70.40;;;;;;5062388;28;20238;-80
2022/01/28 12:04:45;;;;;;;22.30;12.50;;;6.70;70.00;;;;;;5063785;28;20214;-80
2022/01/28 12:07:15;;;;;;;19.27;10.90;;;6.80;68.80;;;;;;5058270;28;20230;-78
2022/01/28 12:09:45;;;;;;;20.25;11.15;;;6.80;67.70;;;;;;5056399;28;20284;-78
2022/01/28 12:12:13;;;;;;;19.50;9.57;;;6.70;67.20;;;;;;5054916;28;20285;-78
2022/01/28 12:15:08;;;;;;;17.02;10.55;;;6.50;68.30;;;;;;5057171;28;20207;-79
2022/01/28 12:17:43;;;;;;;21.27;11.10;;;6.50;68.10;;;;;;5064342;28;20212;-78
2022/01/28 12:20:37;;;;;;;17.10;11.43;;;6.50;68.60;;;;;;5062597;28;20291;-78
2022/01/28 12:23:26;;;;;;;18.08;10.52;;;6.60;67.60;;;;;;5062443;28;20225;-78
2022/01/28 12:26:00;;;;;;;18.58;10.05;;;6.70;67.10;;;;;;5041835;28;20184;-77
2022/01/28 12:28:43;;;;;;;19.42;10.90;;;6.70;65.70;;;;;;5062493;28;20227;-78
2022/01/28 12:31:14;;;;;;;16.00;10.07;;;6.80;65.80;;;;;;5054958;28;20237;-78
2022/01/28 12:33:43;;;;;;;21.05;10.50;;;7.00;65.30;;;;;;5064926;28;20267;-78
2022/01/28 12:36:12;;;;;;;19.88;10.25;;;7.20;64.00;;;;;;5066920;28;20215;-78
2022/01/28 12:38:43;;;;;;;14.95;10.40;;;7.40;63.50;;;;;;5042133;28;20238;-79
2022/01/28 12:41:13;;;;;;;18.50;10.48;;;7.60;62.10;;;;;;5041094;28;20322;-78
2022/01/28 12:43:40;;;;;;;17.52;10.30;;;7.70;61.30;;;;;;5042140;28;20238;-79
2022/01/28 12:46:10;;;;;;;19.05;9.80;;;7.80;59.80;;;;;;5043574;28;20234;-80
2022/01/28 12:48:46;;;;;;;23.42;10.20;;;7.80;59.10;;;;;;5060990;28;20314;-79
2022/01/28 12:51:15;;;;;;;14.57;8.75;;;7.70;59.30;;;;;;5066472;28;20206;-80
2022/01/28 12:53:43;;;;;;;13.25;7.75;;;7.50;58.70;;;;;;5075758;28;20270;-78
2022/01/28 12:56:12;;;;;;;16.42;9.32;;;7.50;58.60;;;;;;5072503;28;20191;-80
2022/01/28 12:58:46;;;;;;;13.00;9.25;;;7.40;58.90;;;;;;5077768;28;20317;-80
2022/01/28 13:01:15;;;;;;;14.35;9.60;;;7.40;60.10;;;;;;5077109;28;20209;-80
2022/01/28 13:03:49;;;;;;;16.42;8.90;;;7.60;58.40;;;;;;5076580;28;20262;-78
2022/01/28 13:06:39;;;;;;;11.68;7.80;;;7.60;58.20;;;;;;5074459;28;20206;-77
2022/01/28 13:09:13;;;;;;;10.73;7.18;;;7.60;57.60;;;;;;5066664;28;20218;-78
2022/01/28 13:11:44;;;;;;;12.82;7.70;;;7.50;57.20;;;;;;5073747;28;20183;-77
2022/01/28 13:14:12;;;;;;;12.93;7.68;;;7.40;56.70;;;;;;5074867;28;20261;-78
2022/01/28 13:16:40;;;;;;;13.32;8.25;;;7.30;56.80;;;;;;5065598;28;20211;-78
2022/01/28 13:19:11;;;;;;;13.35;8.27;;;7.30;56.80;;;;;;5069383;28;20254;-78
2022/01/28 13:21:39;;;;;;;12.77;7.65;;;7.30;56.50;;;;;;5067112;28;20217;-77
2022/01/28 13:24:17;;;;;;;17.83;7.70;;;7.30;56.30;;;;;;5072409;28;20269;-78
2022/01/28 13:26:56;;;;;;;11.02;7.85;;;7.30;55.60;;;;;;5063778;28;20763;-78
2022/01/28 13:29:36;;;;;;;12.85;6.72;;;7.50;55.60;;;;;;5069602;28;20256;-79
2022/01/28 13:32:07;;;;;;;10.27;6.28;;;7.50;53.90;;;;;;5069186;28;20666;-79
2022/01/28 13:34:48;;;;;;;12.00;7.60;;;7.50;52.10;;;;;;5064995;28;20229;-79
2022/01/28 13:37:38;;;;;;;10.93;7.57;;;7.60;52.90;;;;;;5068705;28;20570;-78